Home   Weather   Uzbekistan   Samarkand   Past weeks
Flag for Uzbekistan

Past Weather in Samarkand, Uzbekistan — Yesterday and Last 2 Weeks

Currently: 70 °F. Clear. (Weather station: Samarkand, Uzbekistan). See more current weather

Past Weather in Samarkand — Graph

°F

Samarkand Temperature Yesterday

Maximum temperature yesterday: 91 °F (at 2:30 pm)
Minimum temperature yesterday: 61 °F (at 5:00 am)
Average temperature yesterday: 75 °F

High & Low Weather Summary for the Past Weeks

 TemperatureHumidityPressure
High95 °F (Sep 18, 1:30 pm)50% (Sep 17, 11:30 pm)30.01 "Hg (Sep 17, 11:30 pm)
Low59 °F (Sep 22, 5:30 am)10% (Sep 25, 3:00 pm)29.74 "Hg (Sep 17, 3:00 pm)
Average74 °F26%29.92 "Hg
* Reported Sep 10 11:00 pm — Sep 25 11:30 pm, Samarkand. Weather by CustomWeather, © 2021

Note: Actual official high and low records may vary slightly from our data, if they occured in-between our weather recording intervals... More about our weather records

Samarkand Weather History for the Previous 24 Hours

Scroll right to see more
 ConditionsComfort  
Time TempWeatherWind HumidityBarometerVisibility
11:30 pm
Sat, Sep 25
70 °FClear.9 mph38%29.86 "Hg4 mi
11:00 pm70 °FClear.9 mph40%29.86 "Hg4 mi
10:30 pm72 °FClear.12 mph38%29.86 "Hg4 mi
10:00 pm73 °FClear.9 mph36%29.86 "Hg4 mi
9:30 pm73 °FClear.9 mph36%29.89 "Hg4 mi
9:00 pm73 °FClear.9 mph38%29.89 "Hg4 mi
8:30 pm75 °FClear.9 mph34%29.89 "Hg4 mi
8:00 pm79 °FClear.9 mph28%29.89 "Hg4 mi
7:30 pm79 °FClear.14 mph28%29.89 "Hg4 mi
7:00 pm81 °FClear.14 mph24%29.89 "Hg4 mi
6:00 pm84 °FClear.12 mph19%29.89 "HgN/A
5:30 pm88 °FClear.9 mph16%29.89 "HgN/A
5:00 pm90 °FClear.12 mph15%29.89 "HgN/A
4:30 pm91 °FClear.5 mph11%29.89 "HgN/A
4:00 pm91 °FClear.7 mph14%29.89 "HgN/A
3:30 pm90 °FClear.5 mph13%29.89 "HgN/A
3:00 pm91 °FClear.5 mph10%29.89 "HgN/A
2:30 pm91 °FClear.5 mph14%29.92 "HgN/A
2:00 pm90 °FClear.5 mph13%29.92 "HgN/A
1:30 pm90 °FClear.5 mph15%29.92 "HgN/A
1:00 pm88 °FClear.5 mph17%29.92 "HgN/A
12:30 pm86 °FClear.5 mph17%29.95 "HgN/A
12:00 pm86 °FClear.5 mph18%29.95 "HgN/A
11:30 am84 °FClear.7 mph20%29.95 "HgN/A
11:00 am82 °FClear.9 mph20%29.95 "HgN/A
10:30 am82 °FClear.9 mph20%29.98 "HgN/A
9:30 am77 °FClear.7 mph24%29.98 "HgN/A
9:00 am72 °FClear.9 mph29%29.95 "HgN/A
8:30 am70 °FClear.7 mph31%29.98 "HgN/A
8:00 am66 °FClear.12 mph35%29.95 "HgN/A
7:30 am64 °FClear.12 mph34%29.95 "HgN/A
7:00 am63 °FClear.5 mph37%29.95 "HgN/A
6:30 am63 °FClear.7 mph37%29.95 "Hg4 mi
6:00 am63 °FClear.12 mph37%29.95 "Hg4 mi
5:30 am63 °FClear.9 mph37%29.95 "Hg4 mi
5:00 am61 °FClear.7 mph42%29.95 "Hg4 mi
4:30 am64 °FClear.9 mph34%29.95 "Hg4 mi
4:00 am63 °FClear.9 mph39%29.95 "Hg4 mi
3:30 am66 °FClear.9 mph32%29.95 "Hg4 mi
3:00 am66 °FClear.12 mph35%29.95 "Hg4 mi
2:30 am64 °FClear.14 mph37%29.95 "Hg4 mi
2:00 am63 °FClear.14 mph42%29.95 "Hg4 mi
1:30 am64 °FClear.12 mph40%29.95 "Hg4 mi
1:00 am66 °FClear.14 mph37%29.95 "Hg4 mi
12:30 am66 °FClear.9 mph37%29.95 "Hg4 mi
Weather by CustomWeather, © 2021

See weather overview